Time;durP1;ratioP1;P1;durP2;ratioP2;P2;SDS_P1;SDS_P2;PMS_P1;PMS_P2;Temp;Humidity;BMP_temperature;BMP_pressure;BME280_temperature;BME280_humidity;BME280_pressure;Samples;Min_cycle;Max_cycle;Signal;HPM_P1;HPM_P2
2022/11/14 00:00:44;;;;;;;34.70;23.50;;;8.70;88.10;;;;;;5074582;28;20595;-88
2022/11/14 00:03:11;;;;;;;35.33;24.27;;;8.70;88.10;;;;;;5074650;28;20182;-88
2022/11/14 00:05:44;;;;;;;38.60;27.13;;;8.70;87.90;;;;;;5074158;28;20199;-88
2022/11/14 00:08:19;;;;;;;37.77;26.43;;;8.60;87.90;;;;;;5074229;28;20185;-88
2022/11/14 00:10:50;;;;;;;38.53;26.70;;;8.60;87.90;;;;;;5074148;28;20201;-87
2022/11/14 00:13:16;;;;;;;37.23;25.70;;;8.60;87.70;;;;;;5074188;28;20233;-88
2022/11/14 00:15:43;;;;;;;38.60;27.53;;;8.50;87.80;;;;;;5074010;28;20290;-88
2022/11/14 00:18:09;;;;;;;38.93;27.90;;;8.60;87.80;;;;;;5073864;28;20206;-88
2022/11/14 00:20:35;;;;;;;40.20;26.77;;;8.60;87.90;;;;;;5074252;28;20171;-88
2022/11/14 00:23:00;;;;;;;40.00;27.03;;;8.50;87.90;;;;;;5074981;28;20206;-88
2022/11/14 00:25:26;;;;;;;35.87;26.30;;;8.50;87.90;;;;;;5074633;28;20187;-88
2022/11/14 00:27:51;;;;;;;39.40;27.10;;;8.50;88.00;;;;;;5075201;28;20168;-88
2022/11/14 00:30:16;;;;;;;40.83;28.30;;;8.50;88.00;;;;;;5075093;28;20538;-88
2022/11/14 00:32:42;;;;;;;44.23;29.97;;;8.50;88.10;;;;;;5074916;28;20182;-88
2022/11/14 00:35:08;;;;;;;43.10;27.67;;;8.40;88.20;;;;;;5076313;28;20195;-88
2022/11/14 00:37:34;;;;;;;41.57;28.97;;;8.40;88.30;;;;;;5076795;28;20171;-88
2022/11/14 00:39:59;;;;;;;40.53;25.50;;;8.40;88.30;;;;;;5076057;28;20202;-89
2022/11/14 00:42:25;;;;;;;41.97;29.33;;;8.30;88.30;;;;;;5075168;28;20182;-87
2022/11/14 00:44:50;;;;;;;37.80;28.87;;;8.30;88.10;;;;;;5074425;28;20704;-87
2022/11/14 00:47:16;;;;;;;43.73;29.97;;;8.30;88.20;;;;;;5075672;28;20186;-88
2022/11/14 00:49:41;;;;;;;44.27;30.70;;;8.30;88.30;;;;;;5074447;28;20215;-88
2022/11/14 00:52:07;;;;;;;41.43;29.50;;;8.30;88.40;;;;;;5074424;28;20252;-88
2022/11/14 00:54:32;;;;;;;44.67;30.03;;;8.30;88.50;;;;;;5074889;28;20199;-87
2022/11/14 00:56:58;;;;;;;44.87;29.70;;;8.30;88.60;;;;;;5075263;28;20183;-88
2022/11/14 00:59:23;;;;;;;41.40;28.50;;;8.30;88.60;;;;;;5073811;28;20673;-87
2022/11/14 01:01:48;;;;;;;41.40;29.37;;;8.30;88.60;;;;;;5073990;28;20168;-87
2022/11/14 01:04:14;;;;;;;43.80;29.17;;;8.30;88.60;;;;;;5073874;28;20170;-87
2022/11/14 01:06:40;;;;;;;41.17;30.53;;;8.30;88.80;;;;;;5073832;28;20194;-87
2022/11/14 01:09:05;;;;;;;43.63;29.40;;;8.20;88.80;;;;;;5073903;28;20545;-87
2022/11/14 01:11:31;;;;;;;44.50;29.80;;;8.30;88.70;;;;;;5073528;28;20171;-87
2022/11/14 01:13:56;;;;;;;41.80;29.70;;;8.20;88.60;;;;;;5073523;28;20186;-87
2022/11/14 01:16:22;;;;;;;43.83;29.73;;;8.20;88.60;;;;;;5073471;28;20210;-87
2022/11/14 01:18:48;;;;;;;40.20;27.20;;;8.10;88.60;;;;;;5074808;28;20210;-87
2022/11/14 01:21:14;;;;;;;44.13;28.93;;;8.10;88.60;;;;;;5073269;28;20202;-87
2022/11/14 01:23:40;;;;;;;46.40;29.37;;;8.10;88.60;;;;;;5073430;28;20256;-87
2022/11/14 01:26:11;;;;;;;41.20;29.30;;;8.10;88.40;;;;;;5073425;28;20241;-87
2022/11/14 01:28:38;;;;;;;40.50;26.20;;;8.10;88.40;;;;;;5073233;28;20183;-87
2022/11/14 01:31:08;;;;;;;39.50;27.57;;;8.00;88.30;;;;;;5073261;28;20645;-87
2022/11/14 01:33:34;;;;;;;42.97;27.93;;;8.00;88.30;;;;;;5074380;28;20320;-87
2022/11/14 01:35:59;;;;;;;42.37;28.50;;;8.00;88.30;;;;;;5073533;28;20720;-87
2022/11/14 01:38:25;;;;;;;43.90;28.03;;;7.90;88.40;;;;;;5073060;28;20207;-87
2022/11/14 01:40:50;;;;;;;44.03;25.80;;;7.90;88.50;;;;;;5074648;28;20182;-87
2022/11/14 01:43:23;;;;;;;42.40;25.27;;;7.80;88.50;;;;;;5073061;28;20221;-87
2022/11/14 01:46:01;;;;;;;45.00;28.63;;;7.80;88.60;;;;;;5072564;28;20195;-87
2022/11/14 01:48:35;;;;;;;47.50;29.27;;;7.80;88.80;;;;;;5073048;28;20186;-87
2022/11/14 01:51:04;;;;;;;40.57;26.03;;;7.80;88.80;;;;;;5074041;28;20170;-87
2022/11/14 01:53:30;;;;;;;44.47;30.63;;;7.80;88.80;;;;;;5073055;28;20226;-87
2022/11/14 01:56:00;;;;;;;48.30;31.20;;;7.80;88.80;;;;;;5073997;28;20196;-87
2022/11/14 01:58:27;;;;;;;49.33;31.07;;;7.80;88.80;;;;;;5073142;28;20211;-87
2022/11/14 02:00:54;;;;;;;45.70;29.77;;;7.80;88.90;;;;;;5074190;28;20206;-87
2022/11/14 02:03:20;;;;;;;46.70;29.73;;;7.80;88.90;;;;;;5072947;28;20178;-87
2022/11/14 02:05:47;;;;;;;41.40;28.63;;;7.70;88.90;;;;;;5072938;28;20192;-87
2022/11/14 02:08:14;;;;;;;47.50;31.20;;;7.70;88.90;;;;;;5073086;28;20183;-87
2022/11/14 02:10:40;;;;;;;52.40;32.17;;;7.70;88.90;;;;;;5072955;28;20180;-87
2022/11/14 02:13:05;;;;;;;49.37;28.47;;;7.70;89.00;;;;;;5072891;28;20597;-87
2022/11/14 02:15:32;;;;;;;46.40;30.63;;;7.70;89.00;;;;;;5074032;28;20199;-87
2022/11/14 02:17:58;;;;;;;51.03;31.10;;;7.70;89.00;;;;;;5072541;28;20191;-87
2022/11/14 02:20:31;;;;;;;48.50;32.77;;;7.70;89.00;;;;;;5072676;28;20175;-87
2022/11/14 02:22:56;;;;;;;48.03;30.83;;;7.70;89.10;;;;;;5073921;28;20159;-87
2022/11/14 02:25:22;;;;;;;52.10;32.37;;;7.70;89.20;;;;;;5073797;28;20202;-87
2022/11/14 02:27:49;;;;;;;47.93;30.30;;;7.70;89.20;;;;;;5073922;28;20242;-87
2022/11/14 02:30:18;;;;;;;51.73;32.90;;;7.70;89.20;;;;;;5073261;28;20179;-87
2022/11/14 02:32:44;;;;;;;49.40;31.07;;;7.70;89.20;;;;;;5073202;28;20710;-87
2022/11/14 02:35:10;;;;;;;51.03;31.63;;;7.70;89.30;;;;;;5073639;28;20191;-87
2022/11/14 02:37:35;;;;;;;47.50;30.60;;;7.60;89.40;;;;;;5072633;28;20175;-87
2022/11/14 02:40:01;;;;;;;53.70;33.47;;;7.60;89.30;;;;;;5073976;28;20660;-87
2022/11/14 02:42:27;;;;;;;58.13;34.67;;;7.60;89.30;;;;;;5072530;28;20176;-87
2022/11/14 02:44:53;;;;;;;46.07;32.20;;;7.70;89.40;;;;;;5072444;28;20202;-87
2022/11/14 02:47:19;;;;;;;51.67;31.67;;;7.70;89.40;;;;;;5072719;28;20645;-87
2022/11/14 02:49:44;;;;;;;50.13;32.77;;;7.70;89.40;;;;;;5073764;28;20182;-87
2022/11/14 02:52:10;;;;;;;55.57;33.67;;;7.70;89.40;;;;;;5074224;28;20172;-87
2022/11/14 02:54:35;;;;;;;50.80;33.30;;;7.60;89.40;;;;;;5072530;28;20195;-87
2022/11/14 02:57:00;;;;;;;50.80;32.83;;;7.60;89.40;;;;;;5073912;28;20194;-87
2022/11/14 02:59:26;;;;;;;53.57;34.57;;;7.70;89.40;;;;;;5077503;28;20198;-87
2022/11/14 03:01:51;;;;;;;50.80;33.83;;;7.70;89.40;;;;;;5077475;28;20183;-87
2022/11/14 03:04:17;;;;;;;52.17;33.50;;;7.60;89.50;;;;;;5076152;28;20179;-87
2022/11/14 03:06:42;;;;;;;50.73;33.03;;;7.70;89.50;;;;;;5076170;28;20603;-87
2022/11/14 03:09:08;;;;;;;53.90;34.87;;;7.60;89.50;;;;;;5076675;28;20182;-87
2022/11/14 03:11:34;;;;;;;55.00;33.97;;;7.60;89.60;;;;;;5076486;28;20171;-87
2022/11/14 03:13:59;;;;;;;52.73;32.93;;;7.70;89.70;;;;;;5077113;28;20672;-87
2022/11/14 03:16:25;;;;;;;56.50;33.17;;;7.60;89.60;;;;;;5075797;28;20179;-87
2022/11/14 03:18:51;;;;;;;56.30;33.43;;;7.60;89.50;;;;;;5075979;28;20211;-87
2022/11/14 03:21:19;;;;;;;57.53;36.70;;;7.70;89.50;;;;;;5077390;28;20584;-87
2022/11/14 03:23:45;;;;;;;55.23;32.23;;;7.70;89.50;;;;;;5076876;28;20178;-87
2022/11/14 03:26:13;;;;;;;52.97;33.40;;;7.60;89.50;;;;;;5075594;28;20685;-87
2022/11/14 03:28:40;;;;;;;55.07;33.87;;;7.60;89.40;;;;;;5075500;28;20179;-87
2022/11/14 03:31:07;;;;;;;48.63;31.50;;;7.60;89.40;;;;;;5075588;28;20186;-87
2022/11/14 03:33:34;;;;;;;53.07;34.83;;;7.60;89.40;;;;;;5075680;28;20236;-87
2022/11/14 03:36:00;;;;;;;60.17;36.03;;;7.60;89.50;;;;;;5076588;28;20210;-87
2022/11/14 03:38:25;;;;;;;56.90;35.47;;;7.60;89.50;;;;;;5076666;28;20203;-87
2022/11/14 03:40:52;;;;;;;52.57;31.67;;;7.60;89.40;;;;;;5076603;28;20695;-87
2022/11/14 03:43:19;;;;;;;59.27;35.97;;;7.60;89.40;;;;;;5076449;28;20210;-87
2022/11/14 03:45:45;;;;;;;60.07;37.07;;;7.60;89.40;;;;;;5074964;28;20270;-87
2022/11/14 03:48:12;;;;;;;59.37;37.93;;;7.60;89.40;;;;;;5075046;28;20179;-87
2022/11/14 03:50:37;;;;;;;59.00;36.43;;;7.60;89.40;;;;;;5074961;28;20188;-87
2022/11/14 03:53:03;;;;;;;56.03;36.43;;;7.70;89.40;;;;;;5076163;28;20292;-87
2022/11/14 03:55:29;;;;;;;56.20;37.27;;;7.60;89.40;;;;;;5075010;28;20298;-87
2022/11/14 03:57:54;;;;;;;56.97;35.67;;;7.60;89.40;;;;;;5076436;28;20219;-87
2022/11/14 04:00:20;;;;;;;56.00;34.50;;;7.60;89.50;;;;;;5074939;28;20178;-87
2022/11/14 04:02:46;;;;;;;62.50;37.07;;;7.60;89.40;;;;;;5075021;28;20172;-87
2022/11/14 04:05:12;;;;;;;55.23;36.20;;;7.60;89.30;;;;;;5074692;28;20199;-87
2022/11/14 04:07:38;;;;;;;57.23;35.03;;;7.60;89.30;;;;;;5074274;28;20176;-87
2022/11/14 04:10:04;;;;;;;55.47;33.70;;;7.60;89.50;;;;;;5075269;28;20182;-87
2022/11/14 04:12:30;;;;;;;58.80;35.47;;;7.60;89.50;;;;;;5074759;28;20298;-87
2022/11/14 04:14:55;;;;;;;57.30;34.63;;;7.60;89.50;;;;;;5074627;28;20282;-87
2022/11/14 04:17:21;;;;;;;59.70;36.33;;;7.60;89.60;;;;;;5076169;28;20218;-87
2022/11/14 04:19:46;;;;;;;61.40;38.73;;;7.60;89.60;;;;;;5074617;28;20198;-87
2022/11/14 04:22:12;;;;;;;62.20;37.97;;;7.50;89.70;;;;;;5074291;28;20180;-87
2022/11/14 04:24:37;;;;;;;55.17;36.37;;;7.50;89.70;;;;;;5074376;28;20210;-87
2022/11/14 04:27:03;;;;;;;58.47;37.93;;;7.60;89.70;;;;;;5075447;28;20172;-87
2022/11/14 04:29:28;;;;;;;61.47;37.13;;;7.60;89.70;;;;;;5074545;28;20265;-87
2022/11/14 04:31:54;;;;;;;64.17;38.27;;;7.50;89.70;;;;;;5074234;28;20645;-87
2022/11/14 04:34:20;;;;;;;64.33;39.03;;;7.50;89.70;;;;;;5074165;28;20203;-87
2022/11/14 04:36:45;;;;;;;61.30;37.43;;;7.50;89.70;;;;;;5074112;28;20218;-87
2022/11/14 04:39:10;;;;;;;62.77;37.90;;;7.60;89.80;;;;;;5074184;28;20231;-87
2022/11/14 04:41:36;;;;;;;66.30;38.73;;;7.60;89.80;;;;;;5073813;28;20171;-87
2022/11/14 04:44:02;;;;;;;63.87;38.83;;;7.60;89.80;;;;;;5073796;28;20209;-87
2022/11/14 04:46:27;;;;;;;60.07;35.43;;;7.60;89.80;;;;;;5073803;28;20179;-87
2022/11/14 04:48:53;;;;;;;62.20;37.80;;;7.60;89.80;;;;;;5075411;28;20214;-87
2022/11/14 04:51:18;;;;;;;62.17;37.53;;;7.60;89.80;;;;;;5074973;28;20175;-87
2022/11/14 04:53:44;;;;;;;59.53;36.97;;;7.50;89.90;;;;;;5074959;28;20673;-87
2022/11/14 04:56:09;;;;;;;56.63;38.90;;;7.60;89.80;;;;;;5074628;28;20559;-87
2022/11/14 04:58:35;;;;;;;59.90;37.20;;;7.60;89.80;;;;;;5074596;28;20246;-87
2022/11/14 05:01:10;;;;;;;58.70;38.23;;;7.50;89.60;;;;;;5073770;28;20179;-87
2022/11/14 05:03:35;;;;;;;58.47;37.40;;;7.50;89.60;;;;;;5074826;28;20233;-87
2022/11/14 05:06:02;;;;;;;58.07;37.53;;;7.60;89.60;;;;;;5073676;28;20191;-87
2022/11/14 05:08:27;;;;;;;61.33;38.57;;;7.50;89.50;;;;;;5073603;28;20182;-87
2022/11/14 05:10:53;;;;;;;62.47;37.33;;;7.50;89.50;;;;;;5073610;28;20625;-87
2022/11/14 05:13:19;;;;;;;60.57;36.13;;;7.50;89.50;;;;;;5073315;28;20551;-87
2022/11/14 05:15:44;;;;;;;61.00;38.07;;;7.50;89.70;;;;;;5073800;28;20571;-87
2022/11/14 05:18:10;;;;;;;62.10;39.17;;;7.50;89.80;;;;;;5073506;28;20253;-87
2022/11/14 05:20:35;;;;;;;64.80;39.47;;;7.50;89.80;;;;;;5072847;28;20176;-87
2022/11/14 05:23:01;;;;;;;57.10;35.43;;;7.50;89.90;;;;;;5073930;28;20239;-87
2022/11/14 05:25:26;;;;;;;59.43;36.90;;;7.50;89.90;;;;;;5073366;28;20681;-87
2022/11/14 05:27:52;;;;;;;58.63;36.23;;;7.50;89.80;;;;;;5073100;28;20202;-87
2022/11/14 05:30:18;;;;;;;61.03;36.40;;;7.50;89.80;;;;;;5073027;28;20645;-87
2022/11/14 05:32:43;;;;;;;62.47;38.93;;;7.50;89.80;;;;;;5072844;28;20167;-87
2022/11/14 05:35:09;;;;;;;59.20;36.50;;;7.50;89.80;;;;;;5072558;28;20710;-87
2022/11/14 05:37:35;;;;;;;58.47;38.23;;;7.50;89.80;;;;;;5072616;28;20172;-87
2022/11/14 05:40:00;;;;;;;60.00;38.73;;;7.50;89.80;;;;;;5072587;28;20202;-87
2022/11/14 05:42:27;;;;;;;59.37;36.37;;;7.50;89.80;;;;;;5072587;28;20171;-87
2022/11/14 05:44:52;;;;;;;61.63;38.07;;;7.50;89.80;;;;;;5072535;28;20195;-87
2022/11/14 05:47:18;;;;;;;59.00;37.70;;;7.50;89.80;;;;;;5073972;28;20228;-87
2022/11/14 05:49:43;;;;;;;68.03;39.80;;;7.50;89.90;;;;;;5072462;28;20185;-87
2022/11/14 05:52:09;;;;;;;59.17;36.93;;;7.50;89.90;;;;;;5074158;28;20675;-87
2022/11/14 05:54:34;;;;;;;65.83;36.30;;;7.40;89.80;;;;;;5073851;28;20210;-87
2022/11/14 05:57:00;;;;;;;53.40;32.70;;;7.50;89.80;;;;;;5072522;28;20183;-87
2022/11/14 05:59:26;;;;;;;55.17;35.73;;;7.40;89.80;;;;;;5072670;28;20202;-87
2022/11/14 06:01:52;;;;;;;62.43;36.90;;;7.40;89.70;;;;;;5072599;28;20255;-87
2022/11/14 06:04:17;;;;;;;57.83;36.23;;;7.40;89.70;;;;;;5072249;28;20175;-87
2022/11/14 06:06:43;;;;;;;61.57;35.63;;;7.30;89.70;;;;;;5074034;28;20656;-87
2022/11/14 06:09:08;;;;;;;56.67;36.27;;;7.40;89.80;;;;;;5072333;28;20192;-87
2022/11/14 06:11:34;;;;;;;59.90;36.87;;;7.40;89.70;;;;;;5072193;28;20190;-86
2022/11/14 06:13:59;;;;;;;58.30;37.77;;;7.40;89.80;;;;;;5073362;28;20528;-87
2022/11/14 06:16:25;;;;;;;60.63;36.33;;;7.40;89.80;;;;;;5072482;28;20179;-87
2022/11/14 06:18:53;;;;;;;60.73;37.70;;;7.40;89.90;;;;;;5072658;28;20206;-87
2022/11/14 06:21:21;;;;;;;58.83;38.00;;;7.40;89.90;;;;;;5072611;28;20232;-87
2022/11/14 06:23:47;;;;;;;60.97;40.50;;;7.40;89.80;;;;;;5072113;28;20225;-87
2022/11/14 06:26:25;;;;;;;62.90;39.00;;;7.40;89.80;;;;;;5073488;28;20202;-87
2022/11/14 06:28:51;;;;;;;62.43;37.33;;;7.40;89.70;;;;;;5073428;28;20641;-87
2022/11/14 06:31:18;;;;;;;56.83;37.30;;;7.40;89.70;;;;;;5074918;28;20186;-87
2022/11/14 06:33:44;;;;;;;61.53;38.30;;;7.40;89.70;;;;;;5076290;28;20203;-87
2022/11/14 06:36:11;;;;;;;57.00;37.60;;;7.40;89.60;;;;;;5076010;28;20241;-87
2022/11/14 06:38:37;;;;;;;58.57;37.87;;;7.40;89.60;;;;;;5076148;28;20658;-87
2022/11/14 06:41:05;;;;;;;59.47;38.60;;;7.40;89.60;;;;;;5075909;28;20183;-87
2022/11/14 06:43:35;;;;;;;60.90;39.57;;;7.40;89.60;;;;;;5077297;28;20544;-87
2022/11/14 06:46:02;;;;;;;61.00;37.30;;;7.40;89.50;;;;;;5076115;28;20543;-87
2022/11/14 06:48:28;;;;;;;62.93;35.73;;;7.40;89.50;;;;;;5077543;28;20179;-87
2022/11/14 06:50:55;;;;;;;64.73;37.30;;;7.40;89.50;;;;;;5075734;28;20668;-86
2022/11/14 06:53:22;;;;;;;60.90;37.13;;;7.40;89.50;;;;;;5075893;28;20215;-87
2022/11/14 06:55:57;;;;;;;58.00;36.57;;;7.40;89.50;;;;;;5077508;28;20263;-87
2022/11/14 06:58:25;;;;;;;60.27;36.13;;;7.40;89.50;;;;;;5075841;28;20214;-87
2022/11/14 07:00:51;;;;;;;59.03;35.93;;;7.40;89.50;;;;;;5075857;28;20524;-87
2022/11/14 07:03:16;;;;;;;56.47;36.63;;;7.40;89.60;;;;;;5075907;28;20221;-87
2022/11/14 07:05:42;;;;;;;61.93;37.53;;;7.40;89.60;;;;;;5076985;28;20195;-87
2022/11/14 07:08:08;;;;;;;63.50;38.40;;;7.40;89.60;;;;;;5077618;28;20179;-87
2022/11/14 07:10:33;;;;;;;61.17;37.33;;;7.40;89.70;;;;;;5075723;28;20680;-87
2022/11/14 07:12:59;;;;;;;61.13;39.10;;;7.40;89.70;;;;;;5075506;28;20545;-87
2022/11/14 07:15:24;;;;;;;61.27;38.40;;;7.40;89.70;;;;;;5076661;28;20202;-87
2022/11/14 07:17:50;;;;;;;63.17;38.83;;;7.40;89.70;;;;;;5075276;28;20214;-87
2022/11/14 07:20:17;;;;;;;60.70;37.70;;;7.40;89.70;;;;;;5075155;28;20684;-87
2022/11/14 07:22:44;;;;;;;60.77;38.97;;;7.40;89.70;;;;;;5076672;28;20301;-87
2022/11/14 07:25:10;;;;;;;64.53;39.17;;;7.40;89.70;;;;;;5075001;28;20242;-87
2022/11/14 07:27:35;;;;;;;63.10;39.70;;;7.40;89.60;;;;;;5076327;28;20664;-87
2022/11/14 07:30:01;;;;;;;61.63;39.67;;;7.40;89.50;;;;;;5074841;28;20207;-87
2022/11/14 07:32:26;;;;;;;63.23;39.97;;;7.50;89.60;;;;;;5076232;28;20175;-87
2022/11/14 07:34:52;;;;;;;63.33;38.77;;;7.50;89.70;;;;;;5075105;28;20210;-87
2022/11/14 07:37:17;;;;;;;61.23;36.63;;;7.40;89.70;;;;;;5075262;28;20182;-87
2022/11/14 07:39:43;;;;;;;63.27;34.47;;;7.40;89.60;;;;;;5075019;28;20199;-85
2022/11/14 07:42:08;;;;;;;61.87;39.07;;;7.30;89.50;;;;;;5073929;28;20288;-85
2022/11/14 07:44:34;;;;;;;63.97;37.47;;;7.40;89.50;;;;;;5074415;28;20590;-85
2022/11/14 07:46:59;;;;;;;71.53;39.00;;;7.40;89.50;;;;;;5074419;28;20176;-84
2022/11/14 07:49:25;;;;;;;63.03;38.53;;;7.40;89.50;;;;;;5075733;28;20262;-85
2022/11/14 07:51:50;;;;;;;59.70;35.20;;;7.40;89.40;;;;;;5076151;28;20649;-85
2022/11/14 07:54:16;;;;;;;62.87;37.23;;;7.40;89.40;;;;;;5075013;28;20175;-85
2022/11/14 07:56:41;;;;;;;64.87;37.70;;;7.40;89.40;;;;;;5074740;28;20187;-85
2022/11/14 07:59:07;;;;;;;63.80;38.23;;;7.50;89.40;;;;;;5075089;28;20204;-86
2022/11/14 08:01:32;;;;;;;60.43;38.33;;;7.40;89.40;;;;;;5074211;28;20539;-87
2022/11/14 08:03:58;;;;;;;60.30;37.63;;;7.50;89.50;;;;;;5074308;28;20171;-87
2022/11/14 08:06:23;;;;;;;68.43;40.53;;;7.40;89.40;;;;;;5074165;28;20195;-87
2022/11/14 08:08:49;;;;;;;64.60;41.13;;;7.50;89.60;;;;;;5075422;28;20175;-87
2022/11/14 08:11:14;;;;;;;62.50;37.93;;;7.40;89.60;;;;;;5074221;28;20175;-87
2022/11/14 08:13:40;;;;;;;70.13;40.77;;;7.40;89.70;;;;;;5074438;28;20270;-86
2022/11/14 08:16:07;;;;;;;65.80;39.27;;;7.40;89.80;;;;;;5074860;28;20206;-86
2022/11/14 08:18:32;;;;;;;70.43;41.33;;;7.40;89.80;;;;;;5073876;28;20562;-86
2022/11/14 08:20:58;;;;;;;72.50;42.27;;;7.40;89.80;;;;;;5073826;28;20168;-86
2022/11/14 08:23:23;;;;;;;76.20;42.10;;;7.40;89.90;;;;;;5075479;28;20517;-86
2022/11/14 08:25:49;;;;;;;72.60;42.63;;;7.40;90.00;;;;;;5074930;28;20548;-87
2022/11/14 08:28:15;;;;;;;71.20;42.17;;;7.40;90.00;;;;;;5073653;28;20167;-87
2022/11/14 08:30:40;;;;;;;69.23;43.23;;;7.40;90.10;;;;;;5074831;28;20174;-86
2022/11/14 08:33:06;;;;;;;72.10;42.07;;;7.40;90.10;;;;;;5075166;28;20623;-87
2022/11/14 08:35:33;;;;;;;69.50;41.47;;;7.40;90.10;;;;;;5073469;28;20282;-86
2022/11/14 08:38:01;;;;;;;65.63;39.00;;;7.40;90.00;;;;;;5073493;28;20670;-86
2022/11/14 08:40:26;;;;;;;70.93;41.10;;;7.40;89.90;;;;;;5073339;28;20168;-85
2022/11/14 08:42:58;;;;;;;64.63;38.97;;;7.40;89.90;;;;;;5073421;28;20175;-87
2022/11/14 08:45:23;;;;;;;67.77;41.03;;;7.40;89.90;;;;;;5074941;28;20661;-87
2022/11/14 08:47:52;;;;;;;72.87;42.87;;;7.40;89.80;;;;;;5074768;28;20175;-86
2022/11/14 08:50:18;;;;;;;67.87;41.67;;;7.40;89.80;;;;;;5073404;28;20175;-86
2022/11/14 08:52:49;;;;;;;66.83;38.13;;;7.40;89.50;;;;;;5073187;28;20624;-87
2022/11/14 08:55:15;;;;;;;51.13;29.73;;;7.40;89.50;;;;;;5073070;28;20253;-86
2022/11/14 08:57:41;;;;;;;63.47;36.63;;;7.30;89.20;;;;;;5074755;28;20195;-86
2022/11/14 09:00:07;;;;;;;66.80;38.23;;;7.30;89.10;;;;;;5074371;28;20202;-86
2022/11/14 09:02:33;;;;;;;64.50;37.83;;;7.40;89.00;;;;;;5073408;28;20550;-87
2022/11/14 09:04:58;;;;;;;66.43;39.13;;;7.40;88.90;;;;;;5073451;28;20217;-86
2022/11/14 09:07:24;;;;;;;66.57;37.93;;;7.40;88.90;;;;;;5074682;28;20171;-86
2022/11/14 09:09:49;;;;;;;70.50;39.33;;;7.40;88.80;;;;;;5074712;28;20182;-86
2022/11/14 09:12:16;;;;;;;59.63;36.67;;;7.40;88.80;;;;;;5073083;28;20232;-86
2022/11/14 09:14:41;;;;;;;69.23;38.80;;;7.40;88.80;;;;;;5073290;28;20571;-86
2022/11/14 09:17:07;;;;;;;66.60;40.80;;;7.50;88.80;;;;;;5073534;28;20180;-85
2022/11/14 09:19:32;;;;;;;69.10;36.90;;;7.50;88.70;;;;;;5074635;28;20198;-86
2022/11/14 09:21:58;;;;;;;65.00;37.50;;;7.50;88.80;;;;;;5073158;28;20657;-86
2022/11/14 09:24:23;;;;;;;64.63;37.80;;;7.40;88.70;;;;;;5072681;28;20274;-86
2022/11/14 09:26:51;;;;;;;65.03;39.73;;;7.50;88.80;;;;;;5072869;28;20191;-85
2022/11/14 09:29:17;;;;;;;67.07;39.63;;;7.40;88.80;;;;;;5073445;28;20176;-87
2022/11/14 09:31:43;;;;;;;65.50;38.90;;;7.40;88.90;;;;;;5073098;28;20205;-87
2022/11/14 09:34:09;;;;;;;67.00;40.43;;;7.40;89.10;;;;;;5072739;28;20171;-86
2022/11/14 09:36:34;;;;;;;69.73;40.60;;;7.50;89.00;;;;;;5072882;28;20623;-86
2022/11/14 09:39:00;;;;;;;72.40;37.00;;;7.50;88.90;;;;;;5073018;28;20221;-87
2022/11/14 09:41:35;;;;;;;69.27;39.60;;;7.50;88.80;;;;;;5072816;28;20266;-87
2022/11/14 09:44:16;;;;;;;63.27;39.30;;;7.50;88.80;;;;;;5072925;28;20179;-87
2022/11/14 09:46:48;;;;;;;64.00;37.83;;;7.50;88.80;;;;;;5072859;28;20179;-87
2022/11/14 09:49:35;;;;;;;69.63;40.97;;;7.50;88.70;;;;;;5072499;28;20661;-87
2022/11/14 09:52:31;;;;;;;65.27;38.53;;;7.50;88.70;;;;;;5072212;28;20179;-87
2022/11/14 09:55:21;;;;;;;70.70;39.50;;;7.50;88.50;;;;;;5073030;28;20216;-87
2022/11/14 09:57:47;;;;;;;62.40;37.97;;;7.50;88.40;;;;;;5069335;28;20203;-87
2022/11/14 10:00:19;;;;;;;67.70;39.70;;;7.60;88.40;;;;;;5073182;28;20271;-87
2022/11/14 10:02:57;;;;;;;64.23;38.80;;;7.60;88.50;;;;;;5072614;28;20594;-87
2022/11/14 10:06:03;;;;;;;68.43;39.90;;;7.60;88.40;;;;;;5071614;28;20574;-87
2022/11/14 10:08:48;;;;;;;65.57;38.57;;;7.60;88.30;;;;;;5072844;28;20179;-87
2022/11/14 10:11:22;;;;;;;63.43;36.37;;;7.70;88.40;;;;;;5073627;28;20175;-87
2022/11/14 10:13:55;;;;;;;60.90;37.97;;;7.70;88.60;;;;;;5074696;28;20242;-88
2022/11/14 10:17:10;;;;;;;60.70;37.30;;;7.70;88.20;;;;;;5075359;28;20264;-87
2022/11/14 10:19:51;;;;;;;63.97;36.20;;;7.60;88.10;;;;;;5056742;28;20214;-87
2022/11/14 10:22:42;;;;;;;69.13;36.27;;;7.70;88.10;;;;;;5073983;28;20259;-88
2022/11/14 10:25:26;;;;;;;54.80;32.77;;;7.70;88.10;;;;;;5073423;28;20201;-87
2022/11/14 10:28:18;;;;;;;60.50;35.73;;;7.60;87.90;;;;;;5073124;28;20656;-87
2022/11/14 10:31:05;;;;;;;62.07;37.90;;;7.70;88.00;;;;;;5072976;28;20178;-87
2022/11/14 10:33:46;;;;;;;61.90;36.10;;;7.70;88.10;;;;;;5081146;28;20680;-88
2022/11/14 10:36:20;;;;;;;61.67;36.83;;;7.70;88.10;;;;;;5073632;28;20356;-87
2022/11/14 10:39:03;;;;;;;65.80;39.03;;;7.70;88.20;;;;;;5073906;28;20252;-87
2022/11/14 10:41:30;;;;;;;61.70;33.90;;;7.80;88.30;;;;;;5073676;28;20172;-87
2022/11/14 10:43:56;;;;;;;66.80;36.40;;;7.70;88.10;;;;;;5075315;28;20172;-87
2022/11/14 10:46:29;;;;;;;67.87;37.93;;;7.70;88.10;;;;;;5071738;28;20252;-85
2022/11/14 10:48:55;;;;;;;57.70;30.47;;;7.80;88.10;;;;;;5074377;28;20588;-87
2022/11/14 10:51:40;;;;;;;55.07;32.73;;;7.70;87.80;;;;;;5074265;28;20263;-87
2022/11/14 10:54:08;;;;;;;54.70;31.80;;;7.80;88.00;;;;;;5072414;28;20174;-87
2022/11/14 10:56:34;;;;;;;58.00;33.13;;;7.70;87.90;;;;;;5074716;28;20172;-87
2022/11/14 10:59:00;;;;;;;62.40;37.57;;;7.80;87.90;;;;;;5074412;28;20295;-87
2022/11/14 11:01:34;;;;;;;60.13;37.13;;;7.80;87.80;;;;;;5073528;28;20178;-88
2022/11/14 11:04:12;;;;;;;60.20;35.60;;;7.90;88.00;;;;;;5074010;28;20167;-89
2022/11/14 11:06:38;;;;;;;68.10;37.00;;;7.90;87.90;;;;;;5076005;28;20638;-89
2022/11/14 11:12:01;;;;;;;59.17;35.70;;;7.90;87.50;;;;;;5076409;28;20255;-88
2022/11/14 11:14:27;;;;;;;53.93;30.80;;;8.00;87.50;;;;;;5078670;28;20199;-89
2022/11/14 11:17:11;;;;;;;60.23;34.67;;;8.00;87.40;;;;;;5076863;28;20183;-87
2022/11/14 11:19:41;;;;;;;53.97;33.83;;;8.00;87.40;;;;;;5076586;28;20256;-86
2022/11/14 11:22:27;;;;;;;59.03;35.97;;;8.00;87.40;;;;;;5076538;28;20225;-86
2022/11/14 11:24:52;;;;;;;57.17;33.53;;;8.00;87.30;;;;;;5076151;28;20183;-86
2022/11/14 11:27:24;;;;;;;58.83;35.37;;;8.00;87.30;;;;;;5076111;28;20202;-85
2022/11/14 11:30:21;;;;;;;57.57;34.60;;;8.10;87.30;;;;;;5076430;28;20555;-86
2022/11/14 11:32:47;;;;;;;61.30;34.77;;;8.10;87.30;;;;;;5076157;28;20159;-86
2022/11/14 11:35:15;;;;;;;59.67;36.50;;;8.20;87.50;;;;;;5074650;28;20199;-86
2022/11/14 11:37:53;;;;;;;61.00;37.00;;;8.20;87.20;;;;;;5074902;28;20206;-86
2022/11/14 11:40:23;;;;;;;56.67;35.70;;;8.30;87.40;;;;;;5075071;28;20199;-85
2022/11/14 11:42:55;;;;;;;58.57;33.40;;;8.30;87.30;;;;;;5076393;28;20179;-86
2022/11/14 11:45:22;;;;;;;56.13;33.10;;;8.40;87.00;;;;;;5075772;28;20191;-86
2022/11/14 11:47:56;;;;;;;52.27;33.27;;;8.50;86.90;;;;;;5075929;28;20186;-86
2022/11/14 11:50:23;;;;;;;49.73;32.23;;;8.50;86.50;;;;;;5074631;28;20175;-86
2022/11/14 11:53:11;;;;;;;55.37;35.20;;;8.60;86.50;;;;;;5074419;28;20171;-86
2022/11/14 11:55:46;;;;;;;50.53;30.20;;;8.70;86.20;;;;;;5074196;28;20199;-86
2022/11/14 11:58:23;;;;;;;52.60;32.97;;;8.70;85.70;;;;;;5075987;28;20183;-86
2022/11/14 12:00:54;;;;;;;54.43;34.73;;;8.50;85.80;;;;;;5074360;28;20163;-86
2022/11/14 12:03:21;;;;;;;52.70;34.53;;;8.50;86.20;;;;;;5074177;28;20176;-86
2022/11/14 12:06:02;;;;;;;60.13;35.80;;;8.60;86.20;;;;;;5074082;28;20307;-86
2022/11/14 12:08:52;;;;;;;53.00;33.40;;;8.70;86.00;;;;;;5074260;28;20182;-85
2022/11/14 12:11:21;;;;;;;57.43;31.53;;;8.70;86.10;;;;;;5075676;28;20163;-85
2022/11/14 12:13:46;;;;;;;54.00;33.17;;;8.70;85.70;;;;;;5075249;28;20225;-85
2022/11/14 12:16:46;;;;;;;52.57;33.73;;;8.70;85.50;;;;;;5075226;28;20191;-86
2022/11/14 12:19:29;;;;;;;51.53;32.83;;;8.80;85.60;;;;;;5077060;28;20195;-91
2022/11/14 12:22:14;;;;;;;50.27;30.77;;;8.80;85.10;;;;;;5076800;28;20168;-90
2022/11/14 12:24:48;;;;;;;51.57;32.60;;;8.80;85.20;;;;;;5076681;28;20199;-90
2022/11/14 12:27:48;;;;;;;52.50;30.93;;;8.90;85.10;;;;;;5076942;28;20729;-91
2022/11/14 12:30:22;;;;;;;49.43;32.50;;;9.00;85.20;;;;;;5075825;28;20547;-90
2022/11/14 12:33:31;;;;;;;47.07;32.90;;;9.00;84.70;;;;;;5076138;28;20176;-91
2022/11/14 12:36:03;;;;;;;46.47;30.13;;;9.10;84.30;;;;;;5067032;28;20207;-90
2022/11/14 12:38:39;;;;;;;50.73;33.33;;;9.10;84.00;;;;;;5076664;28;20708;-91
2022/11/14 12:41:06;;;;;;;45.60;32.50;;;9.10;84.10;;;;;;5076894;28;20648;-90
2022/11/14 12:43:35;;;;;;;47.33;32.50;;;9.10;84.20;;;;;;5077216;28;20175;-90
2022/11/14 12:46:08;;;;;;;48.23;32.57;;;9.10;84.20;;;;;;5079138;28;20561;-90